Tatabanya, Hungary
Current Conditions -  °F | °C
As of 4:45 AM on Thursday 23 Oct 2014 (Local Time) from LHPR Reporting Station
Broken Clouds Broken Clouds  
Wind Chill: 37°   Ceiling: 8300
Heat Index: 45°   Visibility: 6mi
Dew Point: 41°   Wind: 18mph
Humidity: 87%   Direction: 300°WNW
Pressure: 29.71"   Gusts: NA
Location:  47.55°N, 18.44°E
Report Text: LHPR 230245Z 30016KT 9999 SCT033 BKN083 07/05 Q1006
Loading
Personal Weather Stations






























Interactive Weather Map
Tropical Storm Tracking
New forecast layout! Learn more

10-Day Weather Forecast

Advertisements
Track Severe Weather on mobile